createdAt,value
2023-03-26T00:00:54.270Z,98.79
2023-03-26T00:06:03.481Z,98.40
2023-03-26T00:11:06.425Z,98.36
2023-03-26T00:16:08.676Z,98.26
2023-03-26T00:21:12.885Z,98.58
2023-03-26T00:26:15.570Z,98.46
2023-03-26T00:31:17.585Z,98.12
2023-03-26T00:36:20.863Z,97.88
2023-03-26T00:41:25.923Z,97.51
2023-03-26T00:46:28.848Z,98.06
2023-03-26T00:51:33.258Z,98.50
2023-03-26T00:56:35.155Z,98.31
2023-03-26T01:01:37.635Z,97.60
2023-03-26T01:06:43.283Z,97.53
2023-03-26T01:11:45.120Z,97.78
2023-03-26T01:16:49.850Z,96.87
2023-03-26T01:21:53.010Z,96.09
2023-03-26T01:27:25.819Z,95.07
2023-03-26T01:32:37.862Z,95.01
2023-03-26T01:37:43.637Z,96.28
2023-03-26T01:42:49.004Z,96.60
2023-03-26T01:47:50.855Z,96.79
2023-03-26T01:52:52.583Z,96.83
2023-03-26T01:57:59.732Z,96.09
2023-03-26T02:03:18.139Z,95.45
2023-03-26T02:08:22.767Z,94.25
2023-03-26T02:13:26.237Z,94.42
2023-03-26T02:18:36.692Z,93.58
2023-03-26T02:23:40.212Z,93.04
2023-03-26T02:28:43.241Z,92.38
2023-03-26T02:33:47.518Z,91.51
2023-03-26T02:38:50.106Z,91.40
2023-03-26T02:43:53.162Z,91.50
2023-03-26T02:48:58.811Z,92.15
2023-03-26T02:54:01.131Z,92.21
2023-03-26T02:59:25.704Z,92.81
2023-03-26T03:04:47.403Z,93.02
2023-03-26T03:09:50.637Z,93.77
2023-03-26T03:15:16.796Z,94.27
2023-03-26T03:20:18.800Z,94.18
2023-03-26T03:25:22.096Z,93.86
2023-03-26T03:30:25.916Z,94.30
2023-03-26T03:35:48.956Z,94.10
2023-03-26T03:40:51.156Z,94.37
2023-03-26T03:45:54.989Z,94.53
2023-03-26T03:51:18.335Z,94.58
2023-03-26T03:56:36.076Z,94.39
2023-03-26T04:01:59.147Z,94.60
2023-03-26T04:07:07.833Z,94.56
2023-03-26T04:12:30.934Z,94.43
2023-03-26T04:17:42.334Z,94.17
2023-03-26T04:22:45.665Z,94.16
2023-03-26T04:27:49.970Z,93.76
2023-03-26T04:33:00.791Z,93.46
2023-03-26T04:38:07.140Z,93.27
2023-03-26T04:43:13.453Z,93.47
2023-03-26T04:48:32.756Z,93.63
2023-03-26T04:53:35.127Z,93.41
2023-03-26T04:59:01.746Z,93.23
2023-03-26T05:04:08.229Z,93.12
2023-03-26T05:09:10.671Z,92.85
2023-03-26T05:14:44.870Z,92.69
2023-03-26T05:19:53.665Z,92.19
2023-03-26T05:24:56.213Z,91.54
2023-03-26T05:30:00.698Z,90.71
2023-03-26T05:35:04.736Z,89.89
2023-03-26T05:40:12.228Z,88.97
2023-03-26T05:45:43.487Z,88.43
2023-03-26T05:50:55.695Z,88.73
2023-03-26T05:55:58.554Z,88.86
2023-03-26T06:01:19.595Z,88.77
2023-03-26T06:06:57.633Z,89.17
2023-03-26T06:11:59.799Z,89.00
2023-03-26T06:17:04.762Z,87.52
2023-03-26T06:22:27.236Z,86.21
2023-03-26T06:27:47.294Z,86.85
2023-03-26T06:33:04.294Z,87.42
2023-03-26T06:38:14.186Z,87.48
2023-03-26T06:43:16.228Z,87.68
2023-03-26T06:48:33.353Z,87.56
2023-03-26T06:53:48.390Z,86.06
2023-03-26T06:58:54.837Z,86.89
2023-03-26T07:04:31.635Z,86.17
2023-03-26T07:09:53.551Z,85.26
2023-03-26T07:15:13.872Z,84.94
2023-03-26T07:20:39.019Z,84.53
2023-03-26T07:25:42.651Z,84.09
2023-03-26T07:31:00.283Z,82.98
2023-03-26T07:36:18.144Z,82.57
2023-03-26T07:41:43.565Z,80.52
2023-03-26T07:47:26.153Z,80.76
2023-03-26T07:52:50.158Z,79.63
2023-03-26T07:58:11.588Z,78.28
2023-03-26T08:03:50.928Z,78.96
2023-03-26T08:09:13.380Z,79.01
2023-03-26T08:14:40.896Z,78.37
2023-03-26T08:19:54.171Z,81.97
2023-03-26T08:25:05.225Z,81.89
2023-03-26T08:30:11.145Z,77.35
2023-03-26T08:35:13.545Z,76.60
2023-03-26T08:40:18.344Z,78.22
2023-03-26T08:45:51.377Z,79.27
2023-03-26T08:51:07.668Z,79.14
2023-03-26T08:56:09.972Z,78.11
2023-03-26T09:01:46.535Z,80.48
2023-03-26T09:06:57.635Z,80.64
2023-03-26T09:12:23.749Z,81.25
2023-03-26T09:17:51.309Z,81.18
2023-03-26T09:23:03.581Z,61.54
2023-03-26T09:28:21.919Z,52.80
2023-03-26T09:33:56.751Z,46.90
2023-03-26T09:39:04.722Z,52.81
2023-03-26T09:44:39.064Z,58.94
2023-03-26T09:49:45.870Z,52.84
2023-03-26T09:55:02.596Z,47.80
2023-03-26T10:00:10.012Z,42.26
2023-03-26T10:05:24.545Z,38.56
2023-03-26T10:10:30.990Z,43.40
2023-03-26T10:15:34.352Z,48.11
2023-03-26T10:20:43.469Z,50.58
2023-03-26T10:25:54.222Z,56.60
2023-03-26T10:31:17.236Z,59.71
2023-03-26T10:36:29.487Z,61.15
2023-03-26T10:41:35.194Z,56.83
2023-03-26T10:46:44.020Z,46.48
2023-03-26T10:51:51.193Z,42.67
2023-03-26T10:56:56.600Z,39.84
2023-03-26T11:02:05.499Z,38.22
2023-03-26T11:07:11.823Z,36.18
2023-03-26T11:12:26.371Z,36.16
2023-03-26T11:17:41.766Z,43.53
2023-03-26T11:22:50.624Z,48.99
2023-03-26T11:28:00.267Z,54.32
2023-03-26T11:33:03.370Z,60.10
2023-03-26T11:38:06.687Z,61.52
2023-03-26T11:43:11.648Z,62.77
2023-03-26T11:48:14.734Z,66.44
2023-03-26T11:53:19.224Z,67.25
2023-03-26T11:58:27.792Z,68.18
2023-03-26T12:03:30.329Z,66.97
2023-03-26T12:08:34.194Z,66.57
2023-03-26T12:13:42.130Z,62.82
2023-03-26T12:18:44.253Z,65.76
2023-03-26T12:23:58.332Z,63.24
2023-03-26T12:29:05.872Z,63.97
2023-03-26T12:34:13.381Z,61.08
2023-03-26T12:40:09.044Z,66.89
2023-03-26T12:45:00.802Z,64.50
2023-03-26T12:50:05.798Z,62.89
2023-03-26T12:55:14.787Z,66.35
2023-03-26T13:00:25.902Z,66.30
2023-03-26T13:05:34.247Z,63.60
2023-03-26T13:10:51.611Z,66.72
2023-03-26T13:15:56.555Z,66.53
2023-03-26T13:21:02.002Z,66.12
2023-03-26T13:26:10.373Z,62.03
2023-03-26T13:31:17.815Z,66.21
2023-03-26T13:36:24.296Z,64.72
2023-03-26T13:41:31.514Z,63.72
2023-03-26T13:46:36.175Z,65.76
2023-03-26T13:51:39.796Z,65.89
2023-03-26T13:56:43.698Z,62.98
2023-03-26T14:01:51.153Z,61.07
2023-03-26T14:06:57.215Z,62.84
2023-03-26T14:12:33.846Z,62.40
2023-03-26T14:17:39.236Z,63.76
2023-03-26T14:22:46.185Z,64.11
2023-03-26T14:27:54.329Z,63.13
2023-03-26T14:33:05.864Z,65.44
2023-03-26T14:38:39.762Z,62.96
2023-03-26T14:43:55.431Z,64.01
2023-03-26T14:49:05.727Z,65.41
2023-03-26T14:54:11.122Z,65.29
2023-03-26T14:59:23.049Z,63.64
2023-03-26T15:05:00.771Z,64.47
2023-03-26T15:10:26.774Z,64.69
2023-03-26T15:15:54.070Z,65.95
2023-03-26T15:21:29.175Z,68.16
2023-03-26T15:26:59.159Z,65.32
2023-03-26T15:32:30.207Z,66.87
2023-03-26T15:38:20.829Z,67.77
2023-03-26T15:43:23.860Z,66.99
2023-03-26T15:48:32.324Z,65.58
2023-03-26T15:53:36.599Z,65.79
2023-03-26T15:58:44.991Z,66.38
2023-03-26T16:03:51.094Z,66.62
2023-03-26T16:08:57.251Z,67.62
2023-03-26T16:14:12.409Z,65.77
2023-03-26T16:19:36.120Z,67.89
2023-03-26T16:24:38.545Z,67.26
2023-03-26T16:30:08.716Z,66.07
2023-03-26T16:35:33.462Z,66.10
2023-03-26T16:40:35.992Z,66.45
2023-03-26T16:45:42.561Z,65.81
2023-03-26T16:50:46.459Z,66.13
2023-03-26T16:55:52.786Z,67.01
2023-03-26T17:01:04.703Z,66.97
2023-03-26T17:06:26.177Z,66.29
2023-03-26T17:11:31.436Z,67.49
2023-03-26T17:16:36.088Z,67.81
2023-03-26T17:21:45.527Z,67.58
2023-03-26T17:26:52.424Z,66.09
2023-03-26T17:32:00.445Z,66.09
2023-03-26T17:37:03.191Z,66.85
2023-03-26T17:42:16.172Z,67.69
2023-03-26T17:47:23.651Z,65.85
2023-03-26T17:52:26.052Z,68.23
2023-03-26T17:57:32.594Z,67.40
2023-03-26T18:02:37.118Z,67.73
2023-03-26T18:07:56.159Z,65.87
2023-03-26T18:13:04.586Z,67.49
2023-03-26T18:18:13.215Z,66.03
2023-03-26T18:23:22.077Z,65.65
2023-03-26T18:28:31.589Z,65.82
2023-03-26T18:33:42.069Z,65.82
2023-03-26T18:38:45.030Z,66.09
2023-03-26T18:43:46.849Z,65.18
2023-03-26T18:48:49.859Z,65.47
2023-03-26T18:53:52.593Z,65.62
2023-03-26T18:58:57.524Z,65.71
2023-03-26T19:04:03.586Z,65.81
2023-03-26T19:09:13.472Z,66.12
2023-03-26T19:14:22.129Z,66.14
2023-03-26T19:19:26.292Z,65.84
2023-03-26T19:24:28.023Z,66.08
2023-03-26T19:29:31.497Z,66.31
2023-03-26T19:34:35.332Z,65.56
2023-03-26T19:39:40.203Z,65.45
2023-03-26T19:44:42.309Z,65.27
2023-03-26T19:49:50.957Z,67.15
2023-03-26T19:55:00.227Z,65.64
2023-03-26T20:00:02.382Z,67.38
2023-03-26T20:05:11.618Z,68.43
2023-03-26T20:10:13.402Z,69.85
2023-03-26T20:15:19.273Z,70.12
2023-03-26T20:20:24.814Z,71.63
2023-03-26T20:25:30.966Z,72.00
2023-03-26T20:30:37.803Z,72.59
2023-03-26T20:35:42.219Z,72.44
2023-03-26T20:40:45.126Z,72.23
2023-03-26T20:45:48.437Z,72.25
2023-03-26T20:50:51.569Z,73.28
2023-03-26T20:55:53.248Z,72.67
2023-03-26T21:00:55.689Z,72.98
2023-03-26T21:06:01.307Z,73.31
2023-03-26T21:11:03.742Z,73.53
2023-03-26T21:16:06.489Z,73.86
2023-03-26T21:21:21.729Z,74.49
2023-03-26T21:26:26.308Z,74.23
2023-03-26T21:31:30.862Z,75.12
2023-03-26T21:36:35.163Z,74.92
2023-03-26T21:41:41.575Z,75.19
2023-03-26T21:46:43.872Z,76.04
2023-03-26T21:51:48.738Z,75.82
2023-03-26T21:56:56.829Z,75.85
2023-03-26T22:02:01.123Z,76.33
2023-03-26T22:07:05.712Z,75.42
2023-03-26T22:12:07.478Z,74.80
2023-03-26T22:17:09.173Z,75.29
2023-03-26T22:22:12.484Z,74.65
2023-03-26T22:27:15.958Z,74.62
2023-03-26T22:32:17.636Z,74.02
2023-03-26T22:37:20.638Z,74.33
2023-03-26T22:42:22.392Z,74.21
2023-03-26T22:47:24.852Z,74.54
2023-03-26T22:52:27.999Z,74.38
2023-03-26T22:57:29.663Z,73.53
2023-03-26T23:02:31.381Z,72.70
2023-03-26T23:07:34.564Z,72.27
2023-03-26T23:12:36.316Z,71.91
2023-03-26T23:17:38.335Z,70.57
2023-03-26T23:22:41.410Z,69.52
2023-03-26T23:27:43.128Z,68.68
2023-03-26T23:32:44.831Z,68.65
2023-03-26T23:37:50.734Z,67.99
2023-03-26T23:42:52.405Z,65.65
2023-03-26T23:47:54.118Z,64.43
2023-03-26T23:52:58.130Z,63.93
2023-03-26T23:57:59.822Z,64.23
